sensor_id;sensor_type;location;lat;lon;timestamp;pressure;altitude;pressure_sealevel;temperature;humidity
76352;BME280;65179;47.786;19.138;2023-12-04T00:01:44;101230.19;;;13.34;37.04
76352;BME280;65179;47.786;19.138;2023-12-04T00:04:10;101224.94;;;13.32;37.05
76352;BME280;65179;47.786;19.138;2023-12-04T00:06:35;101226.00;;;13.31;37.04
76352;BME280;65179;47.786;19.138;2023-12-04T00:09:01;101223.28;;;13.31;37.02
76352;BME280;65179;47.786;19.138;2023-12-04T00:11:26;101218.84;;;13.30;36.97
76352;BME280;65179;47.786;19.138;2023-12-04T00:13:51;101218.25;;;13.28;36.95
76352;BME280;65179;47.786;19.138;2023-12-04T00:16:17;101219.31;;;13.27;36.94
76352;BME280;65179;47.786;19.138;2023-12-04T00:18:43;101219.31;;;13.27;36.92
76352;BME280;65179;47.786;19.138;2023-12-04T00:21:08;101226.87;;;13.25;36.92
76352;BME280;65179;47.786;19.138;2023-12-04T00:23:34;101225.19;;;13.24;36.88
76352;BME280;65179;47.786;19.138;2023-12-04T00:25:59;101214.28;;;13.24;36.84
76352;BME280;65179;47.786;19.138;2023-12-04T00:28:25;101209.87;;;13.23;36.87
76352;BME280;65179;47.786;19.138;2023-12-04T00:30:50;101212.81;;;13.22;36.84
76352;BME280;65179;47.786;19.138;2023-12-04T00:33:16;101208.44;;;13.21;36.86
76352;BME280;65179;47.786;19.138;2023-12-04T00:35:41;101222.88;;;13.21;36.79
76352;BME280;65179;47.786;19.138;2023-12-04T00:38:07;101219.75;;;13.24;36.73
76352;BME280;65179;47.786;19.138;2023-12-04T00:40:32;101213.88;;;13.27;36.57
76352;BME280;65179;47.786;19.138;2023-12-04T00:42:58;101211.53;;;13.31;36.48
76352;BME280;65179;47.786;19.138;2023-12-04T00:45:24;101214.62;;;13.34;36.38
76352;BME280;65179;47.786;19.138;2023-12-04T00:47:49;101220.28;;;13.39;36.28
76352;BME280;65179;47.786;19.138;2023-12-04T00:50:14;101217.75;;;13.44;36.19
76352;BME280;65179;47.786;19.138;2023-12-04T00:52:40;101214.56;;;13.47;36.11
76352;BME280;65179;47.786;19.138;2023-12-04T00:55:06;101212.03;;;13.52;36.01
76352;BME280;65179;47.786;19.138;2023-12-04T00:57:31;101221.69;;;13.55;35.93
76352;BME280;65179;47.786;19.138;2023-12-04T00:59:56;101218.72;;;13.56;35.84
76352;BME280;65179;47.786;19.138;2023-12-04T01:02:22;101216.59;;;13.58;35.81
76352;BME280;65179;47.786;19.138;2023-12-04T01:04:47;101218.28;;;13.59;35.71
76352;BME280;65179;47.786;19.138;2023-12-04T01:07:13;101220.78;;;13.61;35.69
76352;BME280;65179;47.786;19.138;2023-12-04T01:09:38;101218.28;;;13.59;35.69
76352;BME280;65179;47.786;19.138;2023-12-04T01:12:04;101212.84;;;13.59;35.70
76352;BME280;65179;47.786;19.138;2023-12-04T01:14:29;101215.75;;;13.58;35.65
76352;BME280;65179;47.786;19.138;2023-12-04T01:16:55;101214.94;;;13.57;35.65
76352;BME280;65179;47.786;19.138;2023-12-04T01:19:20;101222.53;;;13.55;35.58
76352;BME280;65179;47.786;19.138;2023-12-04T01:21:46;101218.94;;;13.55;35.61
76352;BME280;65179;47.786;19.138;2023-12-04T01:24:11;101222.53;;;13.55;35.61
76352;BME280;65179;47.786;19.138;2023-12-04T01:26:37;101216.44;;;13.53;35.56
76352;BME280;65179;47.786;19.138;2023-12-04T01:29:03;101218.09;;;13.54;35.54
76352;BME280;65179;47.786;19.138;2023-12-04T01:31:29;101212.87;;;13.53;35.55
76352;BME280;65179;47.786;19.138;2023-12-04T01:33:54;101217.50;;;13.52;35.58
76352;BME280;65179;47.786;19.138;2023-12-04T01:36:19;101212.87;;;13.53;35.55
76352;BME280;65179;47.786;19.138;2023-12-04T01:38:45;101206.56;;;13.52;35.53
76352;BME280;65179;47.786;19.138;2023-12-04T01:41:10;101208.47;;;13.52;35.49
76352;BME280;65179;47.786;19.138;2023-12-04T01:43:35;101211.19;;;13.52;35.45
76352;BME280;65179;47.786;19.138;2023-12-04T01:46:01;101203.84;;;13.52;35.52
76352;BME280;65179;47.786;19.138;2023-12-04T01:48:28;101204.06;;;13.51;35.48
76352;BME280;65179;47.786;19.138;2023-12-04T01:50:55;101205.12;;;13.50;35.46
76352;BME280;65179;47.786;19.138;2023-12-04T01:53:22;101203.22;;;13.50;35.48
76352;BME280;65179;47.786;19.138;2023-12-04T01:55:47;101203.22;;;13.50;35.43
76352;BME280;65179;47.786;19.138;2023-12-04T01:58:14;101212.44;;;13.49;35.44
76352;BME280;65179;47.786;19.138;2023-12-04T02:00:39;101201.53;;;13.49;35.40
76352;BME280;65179;47.786;19.138;2023-12-04T02:03:06;101201.53;;;13.49;35.37
76352;BME280;65179;47.786;19.138;2023-12-04T02:05:31;101204.25;;;13.49;35.34
76352;BME280;65179;47.786;19.138;2023-12-04T02:07:57;101205.34;;;13.48;35.36
76352;BME280;65179;47.786;19.138;2023-12-04T02:10:23;101207.22;;;13.48;35.30
76352;BME280;65179;47.786;19.138;2023-12-04T02:12:49;101213.53;;;13.48;35.28
76352;BME280;65179;47.786;19.138;2023-12-04T02:15:15;101220.03;;;13.47;35.30
76352;BME280;65179;47.786;19.138;2023-12-04T02:17:43;101212.91;;;13.46;35.26
76352;BME280;65179;47.786;19.138;2023-12-04T02:20:09;101212.91;;;13.46;35.21
76352;BME280;65179;47.786;19.138;2023-12-04T02:22:35;101216.47;;;13.47;35.21
76352;BME280;65179;47.786;19.138;2023-12-04T02:25:00;101219.22;;;13.47;35.19
76352;BME280;65179;47.786;19.138;2023-12-04T02:27:36;101220.03;;;13.47;35.15
76352;BME280;65179;47.786;19.138;2023-12-04T02:30:05;101230.50;;;13.50;35.03
76352;BME280;65179;47.786;19.138;2023-12-04T02:32:36;101241.00;;;13.53;35.04
76352;BME280;65179;47.786;19.138;2023-12-04T02:35:04;101237.19;;;13.54;34.92
76352;BME280;65179;47.786;19.138;2023-12-04T02:37:31;101244.34;;;13.55;34.89
76352;BME280;65179;47.786;19.138;2023-12-04T02:39:57;101242.66;;;13.54;34.88
76352;BME280;65179;47.786;19.138;2023-12-04T02:42:24;101239.94;;;13.54;34.88
76352;BME280;65179;47.786;19.138;2023-12-04T02:44:52;101241.00;;;13.53;34.83
76352;BME280;65179;47.786;19.138;2023-12-04T02:47:18;101236.59;;;13.52;34.81
76352;BME280;65179;47.786;19.138;2023-12-04T02:49:44;101232.16;;;13.51;34.80
76352;BME280;65179;47.786;19.138;2023-12-04T02:52:09;101230.50;;;13.50;34.83
76352;BME280;65179;47.786;19.138;2023-12-04T02:54:35;101246.03;;;13.50;34.80
76352;BME280;65179;47.786;19.138;2023-12-04T02:57:00;101242.47;;;13.49;34.80
76352;BME280;65179;47.786;19.138;2023-12-04T02:59:25;101236.41;;;13.47;34.76
76352;BME280;65179;47.786;19.138;2023-12-04T03:01:51;101239.97;;;13.48;34.74
76352;BME280;65179;47.786;19.138;2023-12-04T03:04:16;101241.84;;;13.47;34.72
76352;BME280;65179;47.786;19.138;2023-12-04T03:06:42;101238.50;;;13.45;34.77
76352;BME280;65179;47.786;19.138;2023-12-04T03:09:07;101238.50;;;13.45;34.71
76352;BME280;65179;47.786;19.138;2023-12-04T03:11:33;101245.03;;;13.44;34.71
76352;BME280;65179;47.786;19.138;2023-12-04T03:13:59;101240.63;;;13.43;34.70
76352;BME280;65179;47.786;19.138;2023-12-04T03:16:25;101247.75;;;13.44;34.67
76352;BME280;65179;47.786;19.138;2023-12-04T03:18:51;101246.94;;;13.44;34.63
76352;BME280;65179;47.786;19.138;2023-12-04T03:21:16;101257.00;;;13.43;34.61
76352;BME280;65179;47.786;19.138;2023-12-04T03:23:41;101255.34;;;13.42;34.58
76352;BME280;65179;47.786;19.138;2023-12-04T03:26:07;101258.88;;;13.43;34.57
76352;BME280;65179;47.786;19.138;2023-12-04T03:28:32;101265.41;;;13.42;34.60
76352;BME280;65179;47.786;19.138;2023-12-04T03:30:58;101266.25;;;13.42;34.58
76352;BME280;65179;47.786;19.138;2023-12-04T03:33:23;101262.91;;;13.40;34.56
76352;BME280;65179;47.786;19.138;2023-12-04T03:35:49;101265.62;;;13.40;34.53
76352;BME280;65179;47.786;19.138;2023-12-04T03:38:14;101265.62;;;13.40;34.51
76352;BME280;65179;47.786;19.138;2023-12-04T03:40:39;101258.50;;;13.39;34.50
76352;BME280;65179;47.786;19.138;2023-12-04T03:43:05;101255.75;;;13.39;34.46
76352;BME280;65179;47.786;19.138;2023-12-04T03:45:30;101259.53;;;13.38;34.51
76352;BME280;65179;47.786;19.138;2023-12-04T03:47:55;101258.72;;;13.38;34.48
76352;BME280;65179;47.786;19.138;2023-12-04T03:50:21;101250.72;;;13.36;34.46
76352;BME280;65179;47.786;19.138;2023-12-04T03:52:46;101255.38;;;13.36;34.47
76352;BME280;65179;47.786;19.138;2023-12-04T03:55:12;101250.72;;;13.36;34.40
76352;BME280;65179;47.786;19.138;2023-12-04T03:57:37;101261.44;;;13.38;34.31
76352;BME280;65179;47.786;19.138;2023-12-04T04:00:04;101268.78;;;13.37;34.30
76352;BME280;65179;47.786;19.138;2023-12-04T04:02:29;101268.34;;;13.40;34.31
76352;BME280;65179;47.786;19.138;2023-12-04T04:04:55;101273.38;;;13.43;34.18
76352;BME280;65179;47.786;19.138;2023-12-04T04:07:20;101264.13;;;13.44;34.14
76352;BME280;65179;47.786;19.138;2023-12-04T04:09:46;101271.25;;;13.45;34.11
76352;BME280;65179;47.786;19.138;2023-12-04T04:12:11;101265.78;;;13.45;34.06
76352;BME280;65179;47.786;19.138;2023-12-04T04:14:37;101265.78;;;13.45;34.03
76352;BME280;65179;47.786;19.138;2023-12-04T04:17:02;101264.13;;;13.44;34.03
76352;BME280;65179;47.786;19.138;2023-12-04T04:19:28;101273.38;;;13.43;34.07
76352;BME280;65179;47.786;19.138;2023-12-04T04:21:54;101262.69;;;13.42;34.06
76352;BME280;65179;47.786;19.138;2023-12-04T04:24:19;101262.69;;;13.42;34.05
76352;BME280;65179;47.786;19.138;2023-12-04T04:26:44;101254.72;;;13.40;34.05
76352;BME280;65179;47.786;19.138;2023-12-04T04:29:10;101259.53;;;13.38;34.05
76352;BME280;65179;47.786;19.138;2023-12-04T04:31:35;101255.75;;;13.39;34.02
76352;BME280;65179;47.786;19.138;2023-12-04T04:34:01;101255.13;;;13.37;34.02
76352;BME280;65179;47.786;19.138;2023-12-04T04:36:26;101248.00;;;13.36;34.04
76352;BME280;65179;47.786;19.138;2023-12-04T04:38:52;101251.78;;;13.35;34.07
76352;BME280;65179;47.786;19.138;2023-12-04T04:41:17;101239.00;;;13.36;34.00
76352;BME280;65179;47.786;19.138;2023-12-04T04:43:43;101231.00;;;13.34;33.99
76352;BME280;65179;47.786;19.138;2023-12-04T04:46:08;101238.16;;;13.35;34.05
76352;BME280;65179;47.786;19.138;2023-12-04T04:48:34;101241.09;;;13.34;34.02
76352;BME280;65179;47.786;19.138;2023-12-04T04:50:59;101240.03;;;13.35;33.98
76352;BME280;65179;47.786;19.138;2023-12-04T04:53:25;101240.50;;;13.32;33.94
76352;BME280;65179;47.786;19.138;2023-12-04T04:55:50;101243.00;;;13.33;33.98
76352;BME280;65179;47.786;19.138;2023-12-04T04:58:16;101242.16;;;13.33;33.96
76352;BME280;65179;47.786;19.138;2023-12-04T05:00:43;101244.25;;;13.31;34.03
76352;BME280;65179;47.786;19.138;2023-12-04T05:03:08;101248.69;;;13.32;33.91
76352;BME280;65179;47.786;19.138;2023-12-04T05:05:33;101253.28;;;13.31;33.95
76352;BME280;65179;47.786;19.138;2023-12-04T05:07:59;101264.41;;;13.30;33.90
76352;BME280;65179;47.786;19.138;2023-12-04T05:10:24;101266.09;;;13.31;33.91
76352;BME280;65179;47.786;19.138;2023-12-04T05:12:50;101270.69;;;13.30;33.89
76352;BME280;65179;47.786;19.138;2023-12-04T05:15:15;101272.81;;;13.28;33.89
76352;BME280;65179;47.786;19.138;2023-12-04T05:17:40;101272.81;;;13.28;33.87
76352;BME280;65179;47.786;19.138;2023-12-04T05:20:06;101262.97;;;13.27;33.91
76352;BME280;65179;47.786;19.138;2023-12-04T05:22:34;101273.87;;;13.27;33.84
76352;BME280;65179;47.786;19.138;2023-12-04T05:24:59;101273.87;;;13.27;33.82
76352;BME280;65179;47.786;19.138;2023-12-04T05:27:25;101274.50;;;13.29;33.92
76352;BME280;65179;47.786;19.138;2023-12-04T05:29:50;101276.78;;;13.32;33.86
76352;BME280;65179;47.786;19.138;2023-12-04T05:32:16;101282.66;;;13.36;33.65
76352;BME280;65179;47.786;19.138;2023-12-04T05:34:42;101278.63;;;13.38;33.58
76352;BME280;65179;47.786;19.138;2023-12-04T05:37:07;101278.44;;;13.40;33.53
76352;BME280;65179;47.786;19.138;2023-12-04T05:39:33;101272.31;;;13.44;33.48
76352;BME280;65179;47.786;19.138;2023-12-04T05:41:58;101274.59;;;13.47;33.43
76352;BME280;65179;47.786;19.138;2023-12-04T05:44:24;101277.56;;;13.46;33.44
76352;BME280;65179;47.786;19.138;2023-12-04T05:46:49;101269.59;;;13.44;33.41
76352;BME280;65179;47.786;19.138;2023-12-04T05:49:14;101261.59;;;13.43;33.49
76352;BME280;65179;47.786;19.138;2023-12-04T05:51:40;101259.94;;;13.42;33.48
76352;BME280;65179;47.786;19.138;2023-12-04T05:54:06;101256.59;;;13.40;33.63
76352;BME280;65179;47.786;19.138;2023-12-04T05:56:32;101253.03;;;13.39;33.64
76352;BME280;65179;47.786;19.138;2023-12-04T05:58:57;101266.91;;;13.38;33.71
76352;BME280;65179;47.786;19.138;2023-12-04T06:01:22;101264.37;;;13.36;33.80
76352;BME280;65179;47.786;19.138;2023-12-04T06:03:48;101261.03;;;13.34;33.78
76352;BME280;65179;47.786;19.138;2023-12-04T06:06:13;101261.03;;;13.34;34.00
76352;BME280;65179;47.786;19.138;2023-12-04T06:08:39;101271.31;;;13.32;33.92
76352;BME280;65179;47.786;19.138;2023-12-04T06:11:04;101274.50;;;13.29;34.02
76352;BME280;65179;47.786;19.138;2023-12-04T06:13:30;101272.81;;;13.28;34.07
76352;BME280;65179;47.786;19.138;2023-12-04T06:15:55;101278.72;;;13.25;34.17
76352;BME280;65179;47.786;19.138;2023-12-04T06:18:20;101275.34;;;13.23;34.29
76352;BME280;65179;47.786;19.138;2023-12-04T06:20:46;101271.97;;;13.21;34.26
76352;BME280;65179;47.786;19.138;2023-12-04T06:23:12;101278.50;;;13.20;34.28
76352;BME280;65179;47.786;19.138;2023-12-04T06:25:37;101278.94;;;13.17;34.40
76352;BME280;65179;47.786;19.138;2023-12-04T06:28:04;101281.03;;;13.15;34.40
76352;BME280;65179;47.786;19.138;2023-12-04T06:30:30;101290.28;;;13.14;34.41
76352;BME280;65179;47.786;19.138;2023-12-04T06:32:55;101294.06;;;13.13;34.21
76352;BME280;65179;47.786;19.138;2023-12-04T06:35:21;101292.16;;;13.14;34.41
76352;BME280;65179;47.786;19.138;2023-12-04T06:37:48;101290.28;;;13.14;34.23
76352;BME280;65179;47.786;19.138;2023-12-04T06:40:14;101289.84;;;13.17;34.57
76352;BME280;65179;47.786;19.138;2023-12-04T06:42:40;101294.87;;;13.20;34.17
76352;BME280;65179;47.786;19.138;2023-12-04T06:45:06;101286.25;;;13.23;34.02
76352;BME280;65179;47.786;19.138;2023-12-04T06:47:34;101293.78;;;13.28;33.92
76352;BME280;65179;47.786;19.138;2023-12-04T06:49:59;101295.25;;;13.30;33.87
76352;BME280;65179;47.786;19.138;2023-12-04T06:52:25;101309.09;;;13.35;33.66
76352;BME280;65179;47.786;19.138;2023-12-04T06:54:50;101302.38;;;13.38;33.60
76352;BME280;65179;47.786;19.138;2023-12-04T06:57:15;101312.00;;;13.40;33.50
76352;BME280;65179;47.786;19.138;2023-12-04T06:59:44;101298.75;;;13.44;33.47
76352;BME280;65179;47.786;19.138;2023-12-04T07:02:09;101314.25;;;13.50;33.45
76352;BME280;65179;47.786;19.138;2023-12-04T07:04:35;101319.31;;;13.53;33.49
76352;BME280;65179;47.786;19.138;2023-12-04T07:07:00;101313.19;;;13.57;33.49
76352;BME280;65179;47.786;19.138;2023-12-04T07:09:33;101298.47;;;13.58;33.50
76352;BME280;65179;47.786;19.138;2023-12-04T07:12:00;101305.63;;;13.59;33.57
76352;BME280;65179;47.786;19.138;2023-12-04T07:14:25;101308.97;;;13.61;33.65
76352;BME280;65179;47.786;19.138;2023-12-04T07:16:51;101325.34;;;13.61;33.77
76352;BME280;65179;47.786;19.138;2023-12-04T07:19:17;101327.84;;;13.63;34.05
76352;BME280;65179;47.786;19.138;2023-12-04T07:21:42;101322.41;;;13.63;34.40
76352;BME280;65179;47.786;19.138;2023-12-04T07:24:08;101331.19;;;13.65;34.68
76352;BME280;65179;47.786;19.138;2023-12-04T07:26:35;101319.25;;;13.66;35.01
76352;BME280;65179;47.786;19.138;2023-12-04T07:29:01;101321.97;;;13.66;35.27
76352;BME280;65179;47.786;19.138;2023-12-04T07:31:27;101313.97;;;13.64;35.48
76352;BME280;65179;47.786;19.138;2023-12-04T07:33:53;101322.41;;;13.63;35.80
76352;BME280;65179;47.786;19.138;2023-12-04T07:36:19;101328.94;;;13.62;36.02
76352;BME280;65179;47.786;19.138;2023-12-04T07:38:45;101329.13;;;13.60;36.26
76352;BME280;65179;47.786;19.138;2023-12-04T07:41:10;101323.03;;;13.58;36.28
76352;BME280;65179;47.786;19.138;2023-12-04T07:43:36;101320.78;;;13.55;36.20
76352;BME280;65179;47.786;19.138;2023-12-04T07:46:01;101319.06;;;13.54;36.11
76352;BME280;65179;47.786;19.138;2023-12-04T07:48:27;101331.06;;;13.53;36.15
76352;BME280;65179;47.786;19.138;2023-12-04T07:50:52;101325.37;;;13.55;36.25
76352;BME280;65179;47.786;19.138;2023-12-04T07:53:17;101323.50;;;13.55;36.19
76352;BME280;65179;47.786;19.138;2023-12-04T07:55:43;101323.50;;;13.55;36.31
76352;BME280;65179;47.786;19.138;2023-12-04T07:58:09;101325.78;;;13.58;36.39
76352;BME280;65179;47.786;19.138;2023-12-04T08:00:34;101333.72;;;13.60;36.38
76352;BME280;65179;47.786;19.138;2023-12-04T08:03:00;101322.41;;;13.63;36.43
76352;BME280;65179;47.786;19.138;2023-12-04T08:05:25;101321.13;;;13.65;36.46
76352;BME280;65179;47.786;19.138;2023-12-04T08:07:52;101324.06;;;13.71;36.42
76352;BME280;65179;47.786;19.138;2023-12-04T08:10:18;101322.56;;;13.75;36.41
76352;BME280;65179;47.786;19.138;2023-12-04T08:12:46;101330.09;;;13.79;36.41
76352;BME280;65179;47.786;19.138;2023-12-04T08:15:12;101327.38;;;13.79;36.45
76352;BME280;65179;47.786;19.138;2023-12-04T08:17:37;101333.03;;;13.78;36.43
76352;BME280;65179;47.786;19.138;2023-12-04T08:20:02;101326.75;;;13.77;36.29
76352;BME280;65179;47.786;19.138;2023-12-04T08:22:29;101325.28;;;13.75;36.22
76352;BME280;65179;47.786;19.138;2023-12-04T08:24:54;101325.72;;;13.72;36.16
76352;BME280;65179;47.786;19.138;2023-12-04T08:27:20;101336.00;;;13.69;36.16
76352;BME280;65179;47.786;19.138;2023-12-04T08:29:45;101334.56;;;13.67;36.13
76352;BME280;65179;47.786;19.138;2023-12-04T08:32:11;101334.56;;;13.67;36.07
76352;BME280;65179;47.786;19.138;2023-12-04T08:34:36;101333.72;;;13.66;36.00
76352;BME280;65179;47.786;19.138;2023-12-04T08:37:02;101335.41;;;13.67;35.97
76352;BME280;65179;47.786;19.138;2023-12-04T08:39:27;101329.94;;;13.67;35.93
76352;BME280;65179;47.786;19.138;2023-12-04T08:41:53;101331.63;;;13.68;35.86
76352;BME280;65179;47.786;19.138;2023-12-04T08:44:18;101336.00;;;13.69;35.82
76352;BME280;65179;47.786;19.138;2023-12-04T08:46:44;101334.34;;;13.68;35.83
76352;BME280;65179;47.786;19.138;2023-12-04T08:49:09;101330.97;;;13.66;35.84
76352;BME280;65179;47.786;19.138;2023-12-04T08:51:35;101335.63;;;13.66;35.89
76352;BME280;65179;47.786;19.138;2023-12-04T08:54:01;101330.34;;;13.64;35.91
76352;BME280;65179;47.786;19.138;2023-12-04T08:56:26;101330.34;;;13.64;35.96
76352;BME280;65179;47.786;19.138;2023-12-04T08:58:51;101324.28;;;13.62;35.99
76352;BME280;65179;47.786;19.138;2023-12-04T09:01:17;101332.28;;;13.64;36.08
76352;BME280;65179;47.786;19.138;2023-12-04T09:03:42;101328.69;;;13.63;36.10
76352;BME280;65179;47.786;19.138;2023-12-04T09:06:08;101327.00;;;13.62;36.20
76352;BME280;65179;47.786;19.138;2023-12-04T09:08:34;101326.81;;;13.64;36.30
76352;BME280;65179;47.786;19.138;2023-12-04T09:11:00;101323.25;;;13.63;36.43
76352;BME280;65179;47.786;19.138;2023-12-04T09:13:25;101327.84;;;13.63;36.51
76352;BME280;65179;47.786;19.138;2023-12-04T09:15:51;101332.91;;;13.59;36.63
76352;BME280;65179;47.786;19.138;2023-12-04T09:18:17;101323.03;;;13.58;36.74
76352;BME280;65179;47.786;19.138;2023-12-04T09:20:42;101320.78;;;13.55;36.85
76352;BME280;65179;47.786;19.138;2023-12-04T09:23:08;101315.31;;;13.55;36.97
76352;BME280;65179;47.786;19.138;2023-12-04T09:25:35;101321.56;;;13.56;37.16
76352;BME280;65179;47.786;19.138;2023-12-04T09:28:00;101319.06;;;13.54;37.31
76352;BME280;65179;47.786;19.138;2023-12-04T09:30:25;101323.69;;;13.54;37.46
76352;BME280;65179;47.786;19.138;2023-12-04T09:32:51;101319.50;;;13.51;37.56
76352;BME280;65179;47.786;19.138;2023-12-04T09:35:16;101314.25;;;13.50;37.62
76352;BME280;65179;47.786;19.138;2023-12-04T09:37:42;101314.50;;;13.48;37.69
76352;BME280;65179;47.786;19.138;2023-12-04T09:40:08;101306.53;;;13.47;37.76
76352;BME280;65179;47.786;19.138;2023-12-04T09:42:33;101308.41;;;13.46;37.82
76352;BME280;65179;47.786;19.138;2023-12-04T09:44:59;101309.47;;;13.45;37.83
76352;BME280;65179;47.786;19.138;2023-12-04T09:47:27;101298.53;;;13.45;37.96
76352;BME280;65179;47.786;19.138;2023-12-04T09:49:53;101301.28;;;13.45;38.08
76352;BME280;65179;47.786;19.138;2023-12-04T09:52:20;101301.28;;;13.45;38.22
76352;BME280;65179;47.786;19.138;2023-12-04T09:54:46;101294.16;;;13.44;38.26
76352;BME280;65179;47.786;19.138;2023-12-04T09:57:11;101292.69;;;13.42;38.35
76352;BME280;65179;47.786;19.138;2023-12-04T09:59:38;101290.81;;;13.42;38.44
76352;BME280;65179;47.786;19.138;2023-12-04T10:02:04;101275.47;;;13.41;38.54
76352;BME280;65179;47.786;19.138;2023-12-04T10:04:32;101273.81;;;13.40;38.61
76352;BME280;65179;47.786;19.138;2023-12-04T10:06:57;101271.28;;;13.39;38.74
76352;BME280;65179;47.786;19.138;2023-12-04T10:09:22;101266.06;;;13.37;38.75
76352;BME280;65179;47.786;19.138;2023-12-04T10:11:50;101265.22;;;13.37;38.89
76352;BME280;65179;47.786;19.138;2023-12-04T10:14:20;101256.19;;;13.36;38.96
76352;BME280;65179;47.786;19.138;2023-12-04T10:16:47;101247.37;;;13.34;39.11
76352;BME280;65179;47.786;19.138;2023-12-04T10:19:27;101247.37;;;13.34;39.13
76352;BME280;65179;47.786;19.138;2023-12-04T10:21:55;101240.25;;;13.33;39.28
76352;BME280;65179;47.786;19.138;2023-12-04T10:26:53;101227.66;;;13.32;39.41
76352;BME280;65179;47.786;19.138;2023-12-04T10:29:18;101227.66;;;13.32;39.40
76352;BME280;65179;47.786;19.138;2023-12-04T10:31:44;101216.37;;;13.29;39.49
76352;BME280;65179;47.786;19.138;2023-12-04T10:34:09;101225.38;;;13.29;39.51
76352;BME280;65179;47.786;19.138;2023-12-04T10:36:36;101230.84;;;13.29;39.60
76352;BME280;65179;47.786;19.138;2023-12-04T10:39:02;101226.44;;;13.28;39.68
76352;BME280;65179;47.786;19.138;2023-12-04T10:41:31;101228.31;;;13.28;39.71
76352;BME280;65179;47.786;19.138;2023-12-04T10:43:57;101227.50;;;13.27;39.75
76352;BME280;65179;47.786;19.138;2023-12-04T10:46:26;101223.94;;;13.27;39.80
76352;BME280;65179;47.786;19.138;2023-12-04T10:48:52;101216.78;;;13.26;39.89
76352;BME280;65179;47.786;19.138;2023-12-04T10:51:19;101213.25;;;13.25;39.85
76352;BME280;65179;47.786;19.138;2023-12-04T10:53:47;101212.16;;;13.26;39.90
76352;BME280;65179;47.786;19.138;2023-12-04T10:56:25;101209.44;;;13.26;39.92
76352;BME280;65179;47.786;19.138;2023-12-04T10:58:53;101211.94;;;13.28;40.01
76352;BME280;65179;47.786;19.138;2023-12-04T11:01:21;101202.94;;;13.27;39.96
76352;BME280;65179;47.786;19.138;2023-12-04T11:03:55;101207.09;;;13.30;40.05
76352;BME280;65179;47.786;19.138;2023-12-04T11:06:22;101205.44;;;13.29;40.04
76352;BME280;65179;47.786;19.138;2023-12-04T11:08:49;101199.16;;;13.28;40.12
76352;BME280;65179;47.786;19.138;2023-12-04T11:11:32;101200.22;;;13.27;40.19
76352;BME280;65179;47.786;19.138;2023-12-04T11:14:01;101198.31;;;13.28;40.24
76352;BME280;65179;47.786;19.138;2023-12-04T11:16:46;101194.31;;;13.30;40.10
76352;BME280;65179;47.786;19.138;2023-12-04T11:19:24;101191.16;;;13.33;40.04
76352;BME280;65179;47.786;19.138;2023-12-04T11:21:53;101188.81;;;13.37;39.97
76352;BME280;65179;47.786;19.138;2023-12-04T11:24:22;101185.84;;;13.38;39.85
76352;BME280;65179;47.786;19.138;2023-12-04T11:26:48;101173.91;;;13.39;39.81
76352;BME280;65179;47.786;19.138;2023-12-04T11:29:15;101171.78;;;13.41;39.76
76352;BME280;65179;47.786;19.138;2023-12-04T11:31:41;101177.25;;;13.41;39.75
76352;BME280;65179;47.786;19.138;2023-12-04T11:34:08;101171.78;;;13.41;39.78
76352;BME280;65179;47.786;19.138;2023-12-04T11:36:34;101160.88;;;13.41;39.80
76352;BME280;65179;47.786;19.138;2023-12-04T11:39:00;101155.66;;;13.40;39.82
76352;BME280;65179;47.786;19.138;2023-12-04T11:41:26;101140.31;;;13.39;39.85
76352;BME280;65179;47.786;19.138;2023-12-04T11:43:52;101142.22;;;13.38;39.91
76352;BME280;65179;47.786;19.138;2023-12-04T11:46:24;101146.00;;;13.37;39.92
76352;BME280;65179;47.786;19.138;2023-12-04T11:48:54;101138.87;;;13.36;39.97
76352;BME280;65179;47.786;19.138;2023-12-04T11:54:08;101128.19;;;13.35;40.09
76352;BME280;65179;47.786;19.138;2023-12-04T11:56:33;101121.87;;;13.34;40.01
76352;BME280;65179;47.786;19.138;2023-12-04T11:59:04;101131.13;;;13.33;40.06
76352;BME280;65179;47.786;19.138;2023-12-04T12:01:36;101123.19;;;13.32;40.07
76352;BME280;65179;47.786;19.138;2023-12-04T12:04:05;101129.44;;;13.32;40.08
76352;BME280;65179;47.786;19.138;2023-12-04T12:06:31;101124.00;;;13.32;40.10
76352;BME280;65179;47.786;19.138;2023-12-04T12:08:56;101129.44;;;13.32;40.11
76352;BME280;65179;47.786;19.138;2023-12-04T12:11:23;101128.66;;;13.32;40.13
76352;BME280;65179;47.786;19.138;2023-12-04T12:13:49;101118.78;;;13.31;40.13
76352;BME280;65179;47.786;19.138;2023-12-04T12:16:14;101116.03;;;13.31;40.14
76352;BME280;65179;47.786;19.138;2023-12-04T12:18:40;101116.88;;;13.31;40.15
76352;BME280;65179;47.786;19.138;2023-12-04T12:21:07;101109.75;;;13.30;40.17
76352;BME280;65179;47.786;19.138;2023-12-04T12:23:33;101108.09;;;13.29;40.16
76352;BME280;65179;47.786;19.138;2023-12-04T14:47:46;100987.16;;;13.04;39.96
76352;BME280;65179;47.786;19.138;2023-12-04T14:50:13;100991.62;;;12.99;40.16
76352;BME280;65179;47.786;19.138;2023-12-04T15:03:21;100980.25;;;13.08;41.28
76352;BME280;65179;47.786;19.138;2023-12-04T15:06:05;100992.63;;;13.04;41.03
76352;BME280;65179;47.786;19.138;2023-12-04T15:08:34;100994.94;;;13.07;41.00
76352;BME280;65179;47.786;19.138;2023-12-04T15:11:14;100982.09;;;13.14;40.83
76352;BME280;65179;47.786;19.138;2023-12-04T15:13:45;100997.34;;;13.22;40.72